Dumfries, United Kingdom
Current Conditions -  °F | °C
As of 5:50 AM on Monday 26 Jan 2015 (Local Time) from EGOM Reporting Station
Scattered Clouds Scattered Clouds  
Wind Chill: 27°   Ceiling: Unl
Heat Index: 37°   Visibility: 6mi
Dew Point: 37°   Wind: 20mph
Humidity: 100%   Direction: 270°W
Pressure: 29.97"   Gusts: NA
Location:  55.07°N, 3.61°W
Report Text: EGOM 260550Z AUTO 27017KT 9999 FEW027/// SCT036/// 03/03 Q1015
Loading
Personal Weather Stations






























Interactive Weather Map New forecast layout! Learn more

10-Day Weather Forecast

Advertisements
Track Severe Weather on mobile